Time;durP1;ratioP1;P1;durP2;ratioP2;P2;SDS_P1;SDS_P2;PMS_P1;PMS_P2;Temp;Humidity;BMP_temperature;BMP_pressure;BME280_temperature;BME280_humidity;BME280_pressure;Samples;Min_cycle;Max_cycle;Signal;HPM_P1;HPM_P2
2020/12/09 06:23:01;;;;;;;;;;;;;;;;;;5068487;28;20405;-51
2020/12/09 06:25:27;;;;;;;17.10;2.50;;;;;;;;;;5064172;28;19916;-52
2020/12/09 06:27:54;;;;;;;17.35;2.33;;;;;;;;;;5064043;28;20067;-52
2020/12/09 06:30:26;;;;;;;18.05;3.05;;;;;;;;;;5064556;28;20038;-51
2020/12/09 06:32:54;;;;;;;12.88;2.15;;;;;;;;;;5061860;28;20045;-52
2020/12/09 06:35:22;;;;;;;21.40;3.33;;;;;;;;;;5058772;28;20485;-53
2020/12/09 06:38:06;;;;;;;18.52;3.05;;;;;;;;;;5062122;28;20033;-59
2020/12/09 06:40:33;;;;;;;23.25;2.58;;;;;;;;;;5062384;28;20063;-53
2020/12/09 06:43:08;;;;;;;17.88;2.63;;;;;;;;;;5063470;28;20050;-52
2020/12/09 06:45:41;;;;;;;18.42;2.83;;;;;;;;;;5061935;28;20147;-52
2020/12/09 06:48:11;;;;;;;15.95;2.60;;;;;;;;;;5063468;28;20033;-54
2020/12/09 06:50:37;;;;;;;12.93;1.90;;;;;;;;;;5059501;28;20087;-56
2020/12/09 06:53:16;;;;;;;21.30;2.97;;;;;;;;;;5066608;28;20514;-53
2020/12/09 06:55:44;;;;;;;17.63;2.30;;;;;;;;;;5051148;28;20040;-54
2020/12/09 06:58:29;;;;;;;23.92;2.47;;;;;;;;;;5062257;28;20069;-53
2020/12/09 07:01:05;;;;;;;12.43;2.92;;;;;;;;;;5047907;28;20553;-52
2020/12/09 07:03:37;;;;;;;21.02;3.15;;;;;;;;;;5052502;28;20047;-52
2020/12/09 07:06:26;;;;;;;22.98;3.33;;;;;;;;;;5051587;28;20126;-55
2020/12/09 07:08:52;;;;;;;18.25;2.92;;;;;;;;;;5044419;28;20060;-53
2020/12/09 07:11:18;;;;;;;13.00;2.70;;;;;;;;;;5051081;28;20593;-52
2020/12/09 07:13:44;;;;;;;20.08;3.30;;;;;;;;;;5041903;28;20386;-51
2020/12/09 07:16:10;;;;;;;23.45;2.88;;;;;;;;;;5035024;28;20650;-52
2020/12/09 07:18:37;;;;;;;19.23;2.78;;;;;;;;;;5051585;28;20032;-55
2020/12/09 07:21:07;;;;;;;23.05;3.28;;;;;;;;;;5050100;28;20116;-55
2020/12/09 07:23:36;;;;;;;20.17;3.22;;;;;;;;;;5050785;28;20504;-62
2020/12/09 07:26:03;;;;;;;21.40;3.15;;;;;;;;;;5050409;28;20037;-52
2020/12/09 07:28:33;;;;;;;19.15;2.88;;;;;;;;;;5042983;28;20085;-55
2020/12/09 07:31:10;;;;;;;25.77;2.88;;;;;;;;;;5044288;28;20041;-56
2020/12/09 07:33:36;;;;;;;26.95;3.15;;;;;;;;;;5044542;28;20077;-54
2020/12/09 07:36:03;;;;;;;18.23;2.30;;;;;;;;;;5047096;28;20029;-56
2020/12/09 07:38:29;;;;;;;23.15;2.25;;;;;;;;;;5043560;28;20029;-52
2020/12/09 07:40:59;;;;;;;20.35;2.63;;;;;;;;;;5042456;28;20025;-60
2020/12/09 07:43:25;;;;;;;15.00;2.20;;;;;;;;;;5047341;28;20025;-54
2020/12/09 07:45:51;;;;;;;13.45;2.03;;;;;;;;;;5046243;28;20078;-52
2020/12/09 07:48:18;;;;;;;21.55;1.90;;;;;;;;;;5040101;28;20459;-58
2020/12/09 07:50:49;;;;;;;20.45;2.58;;;;;;;;;;5037667;28;20516;-51
2020/12/09 07:53:15;;;;;;;17.23;1.70;;;;;;;;;;5047160;28;20025;-52
2020/12/09 07:55:41;;;;;;;17.48;2.40;;;;;;;;;;5043797;28;20095;-52
2020/12/09 07:58:09;;;;;;;11.77;1.73;;;;;;;;;;5044620;28;20040;-54
2020/12/09 08:00:36;;;;;;;19.75;2.00;;;;;;;;;;5045654;28;20017;-52
2020/12/09 08:03:02;;;;;;;13.25;1.80;;;;;;;;;;5042764;28;20402;-52
2020/12/09 08:05:33;;;;;;;15.18;1.88;;;;;;;;;;5042763;28;20511;-53
2020/12/09 08:08:00;;;;;;;18.70;2.63;;;;;;;;;;5045197;28;20037;-55
2020/12/09 08:10:26;;;;;;;13.55;2.00;;;;;;;;;;5047338;28;20135;-53
2020/12/09 08:13:03;;;;;;;14.95;2.70;;;;;;;;;;5044713;28;20423;-54
2020/12/09 08:15:30;;;;;;;18.23;2.28;;;;;;;;;;5049201;28;20025;-52
2020/12/09 08:17:56;;;;;;;21.90;3.10;;;;;;;;;;5038208;28;20037;-55
2020/12/09 08:20:22;;;;;;;20.77;1.80;;;;;;;;;;5043686;28;20033;-52
2020/12/09 08:22:56;;;;;;;17.45;2.42;;;;;;;;;;5044837;28;20041;-56
2020/12/09 08:25:23;;;;;;;21.10;2.80;;;;;;;;;;5045754;28;20033;-53
2020/12/09 08:27:49;;;;;;;16.55;2.30;;;;;;;;;;5042696;28;20025;-55
2020/12/09 08:30:20;;;;;;;19.00;3.95;;;;;;;;;;5047497;28;20490;-54
2020/12/09 08:32:58;;;;;;;16.48;2.10;;;;;;;;;;5046183;28;20031;-53
2020/12/09 08:35:25;;;;;;;15.18;2.17;;;;;;;;;;5046766;28;20163;-51
2020/12/09 08:37:51;;;;;;;13.05;2.13;;;;;;;;;;5047607;28;20027;-52
2020/12/09 08:40:17;;;;;;;15.35;2.00;;;;;;;;;;5047303;28;20032;-52
2020/12/09 08:42:53;;;;;;;14.23;2.25;;;;;;;;;;5048499;28;20032;-57
2020/12/09 08:45:20;;;;;;;13.20;1.65;;;;;;;;;;5048367;28;20120;-54
2020/12/09 08:47:46;;;;;;;16.20;2.50;;;;;;;;;;5047370;28;20508;-55
2020/12/09 08:50:12;;;;;;;15.32;1.70;;;;;;;;;;5044799;28;20544;-55
2020/12/09 08:52:38;;;;;;;14.35;1.90;;;;;;;;;;5041014;28;20017;-57
2020/12/09 08:55:04;;;;;;;12.90;1.90;;;;;;;;;;5040427;28;20316;-52
2020/12/09 08:57:30;;;;;;;15.38;1.67;;;;;;;;;;5049473;28;20441;-56
2020/12/09 08:59:57;;;;;;;11.70;2.25;;;;;;;;;;5037147;28;20033;-52
2020/12/09 09:02:23;;;;;;;16.02;3.60;;;;;;;;;;5041147;28;20022;-53
2020/12/09 09:04:49;;;;;;;28.35;3.92;;;;;;;;;;5045831;28;20048;-53
2020/12/09 09:07:15;;;;;;;19.73;3.67;;;;;;;;;;5043666;28;20100;-55
2020/12/09 09:09:42;;;;;;;24.55;5.38;;;;;;;;;;5045983;28;20137;-53
2020/12/09 09:12:08;;;;;;;22.10;3.17;;;;;;;;;;5045351;28;20120;-54
2020/12/09 09:14:34;;;;;;;20.98;1.77;;;;;;;;;;5044800;28;20116;-56
2020/12/09 09:17:01;;;;;;;30.35;5.78;;;;;;;;;;5044321;28;20118;-54
2020/12/09 09:19:27;;;;;;;41.90;10.32;;;;;;;;;;5041725;28;20389;-55
2020/12/09 09:21:53;;;;;;;32.03;7.47;;;;;;;;;;5045320;28;20573;-54
2020/12/09 09:24:20;;;;;;;42.35;9.52;;;;;;;;;;5039597;28;20033;-52
2020/12/09 09:26:46;;;;;;;49.15;8.50;;;;;;;;;;5041888;28;20113;-55
2020/12/09 09:29:12;;;;;;;14.65;4.38;;;;;;;;;;5041537;28;20110;-54
2020/12/09 09:31:38;;;;;;;15.75;4.60;;;;;;;;;;5046179;28;20079;-53
2020/12/09 09:34:04;;;;;;;22.48;5.75;;;;;;;;;;5046414;28;20021;-54
2020/12/09 09:36:31;;;;;;;13.07;4.47;;;;;;;;;;5048013;28;20031;-55
2020/12/09 09:38:57;;;;;;;20.17;4.93;;;;;;;;;;5046377;28;20784;-51
2020/12/09 09:41:23;;;;;;;15.80;4.90;;;;;;;;;;5046993;28;20024;-52
2020/12/09 09:43:50;;;;;;;23.75;4.18;;;;;;;;;;5044340;28;20452;-51
2020/12/09 09:46:21;;;;;;;18.25;3.70;;;;;;;;;;5046317;28;20033;-53
2020/12/09 09:48:47;;;;;;;22.27;3.40;;;;;;;;;;5041195;28;20033;-57
2020/12/09 09:51:13;;;;;;;21.73;3.35;;;;;;;;;;5042200;28;20041;-56
2020/12/09 09:53:39;;;;;;;28.33;3.92;;;;;;;;;;5040666;28;20128;-52
2020/12/09 09:56:08;;;;;;;27.63;3.92;;;;;;;;;;5044550;28;20025;-52
2020/12/09 09:58:34;;;;;;;25.48;4.05;;;;;;;;;;5043790;28;20029;-52
2020/12/09 10:01:00;;;;;;;21.55;4.07;;;;;;;;;;5041933;28;20048;-54
2020/12/09 10:03:27;;;;;;;21.20;4.63;;;;;;;;;;5041967;28;20025;-54
2020/12/09 10:05:53;;;;;;;28.63;5.38;;;;;;;;;;5041413;28;20033;-51
2020/12/09 10:08:19;;;;;;;30.08;10.10;;;;;;;;;;5040403;28;20025;-53
2020/12/09 10:10:46;;;;;;;21.20;5.07;;;;;;;;;;5043119;28;20036;-51
2020/12/09 10:13:12;;;;;;;23.92;5.00;;;;;;;;;;5041945;28;20249;-53
2020/12/09 10:15:39;;;;;;;27.83;4.95;;;;;;;;;;5035636;28;20043;-56
2020/12/09 10:18:05;;;;;;;13.82;2.95;;;;;;;;;;5040483;28;20118;-56
2020/12/09 10:20:32;;;;;;;19.85;4.25;;;;;;;;;;5031688;28;20032;-53
2020/12/09 10:22:58;;;;;;;15.50;2.88;;;;;;;;;;5042263;28;20068;-53
2020/12/09 10:25:24;;;;;;;17.58;3.00;;;;;;;;;;5016167;28;20339;-55
2020/12/09 10:27:51;;;;;;;11.30;3.10;;;;;;;;;;5005577;28;20041;-55
2020/12/09 10:30:17;;;;;;;19.80;3.30;;;;;;;;;;4997872;28;20041;-53
2020/12/09 10:32:47;;;;;;;16.25;3.88;;;;;;;;;;5004270;28;20033;-53
2020/12/09 10:35:13;;;;;;;19.13;3.10;;;;;;;;;;4998769;28;20092;-56
2020/12/09 10:37:40;;;;;;;13.93;3.30;;;;;;;;;;4992992;28;20022;-51
2020/12/09 10:40:06;;;;;;;22.77;3.60;;;;;;;;;;5005571;28;20109;-55
2020/12/09 10:42:33;;;;;;;18.67;2.88;;;;;;;;;;5010030;28;20053;-51
2020/12/09 10:44:59;;;;;;;14.93;2.78;;;;;;;;;;5007824;28;20125;-55
2020/12/09 10:47:25;;;;;;;19.05;3.47;;;;;;;;;;5007366;28;20115;-50
2020/12/09 10:49:51;;;;;;;18.70;3.20;;;;;;;;;;5000965;28;20475;-51
2020/12/09 10:52:17;;;;;;;21.23;3.80;;;;;;;;;;5001704;28;20033;-55
2020/12/09 10:54:44;;;;;;;21.35;3.83;;;;;;;;;;5007680;28;20431;-55
2020/12/09 10:57:10;;;;;;;22.88;4.07;;;;;;;;;;4996250;28;20049;-61
2020/12/09 10:59:36;;;;;;;21.02;3.42;;;;;;;;;;4995144;28;20084;-54
2020/12/09 11:02:02;;;;;;;20.95;3.80;;;;;;;;;;4995978;28;20126;-56
2020/12/09 11:04:28;;;;;;;17.55;4.63;;;;;;;;;;4994373;28;20025;-55
2020/12/09 11:06:54;;;;;;;12.57;3.42;;;;;;;;;;5008914;28;20380;-53
2020/12/09 11:09:20;;;;;;;22.60;4.50;;;;;;;;;;4996897;28;20038;-53
2020/12/09 11:11:47;;;;;;;15.30;3.42;;;;;;;;;;4996856;28;20396;-54
2020/12/09 11:14:14;;;;;;;27.00;3.70;;;;;;;;;;4996381;28;20073;-54
2020/12/09 11:16:41;;;;;;;14.43;3.25;;;;;;;;;;5008493;28;20032;-57
2020/12/09 11:19:07;;;;;;;18.95;3.45;;;;;;;;;;5007228;28;20038;-55
2020/12/09 11:21:33;;;;;;;21.20;4.60;;;;;;;;;;4996620;28;20121;-53
2020/12/09 11:24:00;;;;;;;23.80;4.63;;;;;;;;;;5007176;28;20026;-56
2020/12/09 11:26:29;;;;;;;25.58;5.60;;;;;;;;;;5006930;28;20542;-56
2020/12/09 11:28:55;;;;;;;28.83;4.25;;;;;;;;;;5003589;28;20436;-55
2020/12/09 11:31:22;;;;;;;31.08;3.95;;;;;;;;;;5009180;28;20029;-54
2020/12/09 11:33:49;;;;;;;18.00;3.45;;;;;;;;;;5009959;28;20022;-55
2020/12/09 11:36:15;;;;;;;23.13;4.03;;;;;;;;;;5008717;28;20058;-60
2020/12/09 11:38:41;;;;;;;21.17;3.65;;;;;;;;;;5007831;28;20025;-59
2020/12/09 11:41:08;;;;;;;15.93;2.80;;;;;;;;;;5007938;28;20509;-61
2020/12/09 11:43:34;;;;;;;18.15;3.33;;;;;;;;;;5009383;28;20105;-61
2020/12/09 11:46:01;;;;;;;21.88;3.78;;;;;;;;;;5009053;28;20065;-58
2020/12/09 11:48:27;;;;;;;23.80;3.95;;;;;;;;;;5010196;28;20169;-59
2020/12/09 11:50:53;;;;;;;23.52;4.35;;;;;;;;;;5009109;28;20045;-57
2020/12/09 11:53:19;;;;;;;20.02;4.50;;;;;;;;;;5007206;28;20113;-58
2020/12/09 11:55:46;;;;;;;12.95;3.78;;;;;;;;;;4997806;28;20079;-56
2020/12/09 11:58:13;;;;;;;17.35;4.10;;;;;;;;;;5007953;28;20989;-59
2020/12/09 12:00:39;;;;;;;20.08;3.80;;;;;;;;;;5001482;28;20038;-61
2020/12/09 12:03:05;;;;;;;19.52;4.45;;;;;;;;;;5008036;28;20516;-56
2020/12/09 12:05:34;;;;;;;24.98;5.38;;;;;;;;;;5005262;28;20034;-60
2020/12/09 12:08:04;;;;;;;23.92;3.10;;;;;;;;;;4998818;28;20087;-59
2020/12/09 12:10:31;;;;;;;12.13;3.28;;;;;;;;;;4999866;28;20042;-56
2020/12/09 12:12:57;;;;;;;12.88;3.75;;;;;;;;;;5008979;28;20029;-60
2020/12/09 12:15:23;;;;;;;18.52;3.90;;;;;;;;;;5009270;28;20026;-58
2020/12/09 12:17:49;;;;;;;22.15;6.15;;;;;;;;;;5006942;28;20061;-58
2020/12/09 12:20:15;;;;;;;24.85;5.10;;;;;;;;;;5007015;28;20117;-58
2020/12/09 12:22:41;;;;;;;20.15;4.43;;;;;;;;;;5007808;28;20099;-59
2020/12/09 12:25:07;;;;;;;21.50;4.28;;;;;;;;;;5002691;28;20029;-58
2020/12/09 12:27:34;;;;;;;12.15;4.00;;;;;;;;;;4999172;28;20034;-56
2020/12/09 12:30:00;;;;;;;20.05;4.07;;;;;;;;;;5008288;28;20180;-70
2020/12/09 12:32:26;;;;;;;15.68;4.15;;;;;;;;;;5006426;28;20026;-65
2020/12/09 12:34:52;;;;;;;23.00;3.67;;;;;;;;;;5003109;28;20117;-65
2020/12/09 12:37:18;;;;;;;15.65;3.70;;;;;;;;;;5005336;28;20438;-64
2020/12/09 12:39:44;;;;;;;22.55;3.60;;;;;;;;;;5006379;28;20029;-65
2020/12/09 12:42:10;;;;;;;17.05;3.25;;;;;;;;;;5004514;28;20100;-65
2020/12/09 12:44:36;;;;;;;15.63;3.65;;;;;;;;;;5002324;28;20026;-66
2020/12/09 12:47:03;;;;;;;15.82;4.22;;;;;;;;;;5006556;28;20045;-65
2020/12/09 12:49:29;;;;;;;13.40;3.20;;;;;;;;;;5005744;28;20109;-63
2020/12/09 12:51:59;;;;;;;17.48;3.78;;;;;;;;;;5001781;28;20030;-64
2020/12/09 12:54:25;;;;;;;18.45;4.63;;;;;;;;;;4998977;28;20499;-64
2020/12/09 12:56:55;;;;;;;25.83;3.90;;;;;;;;;;5006478;28;20041;-65
2020/12/09 12:59:21;;;;;;;21.48;3.60;;;;;;;;;;5002020;28;20052;-66
2020/12/09 13:01:47;;;;;;;21.80;3.30;;;;;;;;;;5001636;28;20038;-65
2020/12/09 13:04:13;;;;;;;18.60;3.58;;;;;;;;;;5005007;28;20487;-66
2020/12/09 13:06:39;;;;;;;19.15;3.35;;;;;;;;;;5004815;28;20109;-65
2020/12/09 13:09:05;;;;;;;17.42;3.45;;;;;;;;;;5001506;28;20516;-65
2020/12/09 13:11:31;;;;;;;21.73;3.80;;;;;;;;;;5003552;28;20037;-65
2020/12/09 13:13:59;;;;;;;19.75;3.80;;;;;;;;;;5003790;28;20030;-65
2020/12/09 13:16:25;;;;;;;19.08;3.47;;;;;;;;;;5001424;28;20022;-65
2020/12/09 13:18:51;;;;;;;21.05;3.47;;;;;;;;;;4999901;28;20029;-64
2020/12/09 13:21:17;;;;;;;15.68;4.00;;;;;;;;;;5002385;28;20556;-65
2020/12/09 13:23:44;;;;;;;20.63;3.55;;;;;;;;;;5005988;28;20026;-65
2020/12/09 13:26:10;;;;;;;20.65;3.47;;;;;;;;;;5005021;28;20521;-65
2020/12/09 13:28:36;;;;;;;12.68;2.55;;;;;;;;;;4998375;28;20026;-65
2020/12/09 13:31:02;;;;;;;19.65;3.45;;;;;;;;;;5006258;28;20544;-65
2020/12/09 13:33:29;;;;;;;24.10;3.08;;;;;;;;;;5009104;28;20053;-64
2020/12/09 13:35:57;;;;;;;19.42;3.97;;;;;;;;;;5005184;28;20030;-64
2020/12/09 13:38:23;;;;;;;14.13;2.55;;;;;;;;;;5004547;28;20194;-65
2020/12/09 13:40:49;;;;;;;19.90;4.00;;;;;;;;;;5006807;28;20407;-65
2020/12/09 13:43:15;;;;;;;17.58;2.92;;;;;;;;;;5001716;28;20058;-65
2020/12/09 13:45:41;;;;;;;16.60;3.20;;;;;;;;;;5006769;28;20026;-65
2020/12/09 13:48:07;;;;;;;13.32;2.25;;;;;;;;;;5006105;28;20045;-65
2020/12/09 13:50:33;;;;;;;14.70;3.40;;;;;;;;;;5005478;28;20014;-65
2020/12/09 13:53:00;;;;;;;13.13;2.88;;;;;;;;;;5006083;28;20307;-65
2020/12/09 13:55:26;;;;;;;20.92;4.13;;;;;;;;;;5003549;28;20520;-64
2020/12/09 13:57:52;;;;;;;15.80;2.92;;;;;;;;;;4993100;28;20042;-65
2020/12/09 14:00:18;;;;;;;13.52;2.53;;;;;;;;;;5000215;28;20503;-65
2020/12/09 14:02:45;;;;;;;21.20;3.22;;;;;;;;;;5005355;28;20407;-64
2020/12/09 14:05:11;;;;;;;17.20;3.10;;;;;;;;;;5006418;28;20479;-65
2020/12/09 14:07:37;;;;;;;15.93;3.35;;;;;;;;;;5002834;28;20025;-64
2020/12/09 14:10:04;;;;;;;15.43;2.95;;;;;;;;;;5006232;28;20030;-65
2020/12/09 14:12:31;;;;;;;12.88;2.72;;;;;;;;;;5009097;28;20034;-64
2020/12/09 14:14:58;;;;;;;19.65;2.95;;;;;;;;;;5010671;28;20026;-64
2020/12/09 14:17:24;;;;;;;14.88;2.55;;;;;;;;;;5007301;28;20546;-64
2020/12/09 14:19:52;;;;;;;14.57;2.20;;;;;;;;;;5010616;28;20033;-64
2020/12/09 14:22:19;;;;;;;13.18;2.30;;;;;;;;;;5010035;28;20057;-65
2020/12/09 14:24:45;;;;;;;13.27;2.42;;;;;;;;;;5011154;28;20018;-64
2020/12/09 14:27:12;;;;;;;11.35;2.22;;;;;;;;;;5011420;28;20033;-64
2020/12/09 14:29:38;;;;;;;11.40;2.10;;;;;;;;;;5010274;28;20029;-70
2020/12/09 14:32:04;;;;;;;16.48;2.47;;;;;;;;;;5010426;28;20064;-64
2020/12/09 14:34:30;;;;;;;18.95;2.78;;;;;;;;;;5010323;28;20100;-64
2020/12/09 14:36:57;;;;;;;13.38;2.72;;;;;;;;;;5010655;28;20036;-64
2020/12/09 14:39:23;;;;;;;14.68;3.47;;;;;;;;;;5012085;28;20392;-64
2020/12/09 14:41:50;;;;;;;18.42;2.58;;;;;;;;;;5003484;28;20120;-63
2020/12/09 14:44:17;;;;;;;16.17;2.33;;;;;;;;;;5010116;28;20491;-64
2020/12/09 14:46:47;;;;;;;11.18;2.00;;;;;;;;;;5010811;28;20034;-63
2020/12/09 14:49:14;;;;;;;19.27;2.67;;;;;;;;;;5006585;28;20108;-63
2020/12/09 14:51:43;;;;;;;17.38;2.88;;;;;;;;;;5008833;28;20024;-65
2020/12/09 14:54:12;;;;;;;12.50;2.72;;;;;;;;;;5011395;28;20165;-63
2020/12/09 14:56:39;;;;;;;10.43;2.15;;;;;;;;;;5000258;28;20024;-63
2020/12/09 14:59:05;;;;;;;17.38;3.03;;;;;;;;;;5010453;28;20084;-63
2020/12/09 15:01:32;;;;;;;20.27;2.72;;;;;;;;;;5007336;28;20057;-64
2020/12/09 15:03:58;;;;;;;15.13;3.05;;;;;;;;;;5010154;28;20021;-63
2020/12/09 15:06:24;;;;;;;13.95;2.42;;;;;;;;;;5011480;28;20038;-63
2020/12/09 15:08:50;;;;;;;16.58;3.17;;;;;;;;;;5010010;28;20076;-63
2020/12/09 15:11:16;;;;;;;15.90;2.85;;;;;;;;;;5009782;28;20029;-64
2020/12/09 15:13:43;;;;;;;13.35;2.92;;;;;;;;;;5000779;28;20045;-64
2020/12/09 15:16:09;;;;;;;13.70;2.38;;;;;;;;;;5007980;28;20034;-63
2020/12/09 15:18:35;;;;;;;13.23;2.45;;;;;;;;;;5010928;28;20018;-63
2020/12/09 15:21:02;;;;;;;19.92;3.15;;;;;;;;;;5008601;28;20050;-63
2020/12/09 15:23:28;;;;;;;19.20;3.13;;;;;;;;;;5008193;28;20030;-63
2020/12/09 15:25:54;;;;;;;20.13;3.80;;;;;;;;;;5008588;28;20029;-63
2020/12/09 15:28:20;;;;;;;19.02;3.40;;;;;;;;;;5008171;28;20032;-63
2020/12/09 15:30:46;;;;;;;14.48;3.08;;;;;;;;;;5010351;28;20096;-63
2020/12/09 15:33:12;;;;;;;14.38;2.70;;;;;;;;;;5009766;28;20495;-64
2020/12/09 15:35:39;;;;;;;15.98;3.30;;;;;;;;;;5008306;28;20037;-64
2020/12/09 15:38:05;;;;;;;24.05;2.90;;;;;;;;;;5008678;28;20519;-63
2020/12/09 15:40:31;;;;;;;16.98;3.45;;;;;;;;;;5008330;28;20091;-63
2020/12/09 15:42:58;;;;;;;15.35;3.08;;;;;;;;;;5001729;28;20033;-64
2020/12/09 15:45:24;;;;;;;14.45;2.88;;;;;;;;;;5005689;28;20407;-63
2020/12/09 15:47:50;;;;;;;22.60;3.47;;;;;;;;;;5014531;28;20033;-64
2020/12/09 15:50:17;;;;;;;24.75;3.47;;;;;;;;;;5007471;28;20037;-64
2020/12/09 15:52:44;;;;;;;17.77;3.40;;;;;;;;;;5011264;28;20044;-64
2020/12/09 15:55:11;;;;;;;20.13;3.17;;;;;;;;;;4996524;28;20549;-63
2020/12/09 15:57:38;;;;;;;16.65;2.97;;;;;;;;;;5017257;28;20049;-64
2020/12/09 16:00:05;;;;;;;29.30;4.20;;;;;;;;;;4999064;28;20030;-64
2020/12/09 16:02:31;;;;;;;18.05;2.92;;;;;;;;;;5005663;28;20034;-64
2020/12/09 16:04:58;;;;;;;15.45;3.08;;;;;;;;;;4995831;28;20062;-64
2020/12/09 16:07:24;;;;;;;28.17;4.03;;;;;;;;;;4997880;28;20514;-64
2020/12/09 16:09:51;;;;;;;20.10;3.90;;;;;;;;;;5007410;28;20022;-64
2020/12/09 16:12:17;;;;;;;20.10;4.22;;;;;;;;;;5001918;28;20034;-64
2020/12/09 16:14:43;;;;;;;15.85;4.55;;;;;;;;;;4998158;28;20866;-66
2020/12/09 16:17:10;;;;;;;15.10;4.03;;;;;;;;;;4998942;28;20383;-64
2020/12/09 16:19:36;;;;;;;22.23;4.55;;;;;;;;;;5005927;28;20494;-65
2020/12/09 16:22:02;;;;;;;14.50;2.90;;;;;;;;;;5006195;28;20050;-64
2020/12/09 16:24:29;;;;;;;16.58;3.88;;;;;;;;;;5008071;28;20507;-63
2020/12/09 16:26:55;;;;;;;17.15;3.80;;;;;;;;;;5005073;28;20109;-64
2020/12/09 16:29:22;;;;;;;19.02;3.90;;;;;;;;;;5005002;28;20479;-64
2020/12/09 16:31:48;;;;;;;20.80;3.75;;;;;;;;;;5005161;28;20535;-63
2020/12/09 16:34:14;;;;;;;21.23;4.22;;;;;;;;;;4999214;28;20037;-64
2020/12/09 16:36:50;;;;;;;18.75;3.72;;;;;;;;;;4991580;28;20034;-65
2020/12/09 16:39:16;;;;;;;24.13;4.78;;;;;;;;;;4991332;28;20438;-65
2020/12/09 16:41:46;;;;;;;16.80;3.65;;;;;;;;;;4991516;28;20851;-65
2020/12/09 16:44:12;;;;;;;17.48;3.40;;;;;;;;;;4988714;28;20030;-60
2020/12/09 16:46:38;;;;;;;20.42;3.88;;;;;;;;;;4991269;28;20026;-60
2020/12/09 16:49:04;;;;;;;10.82;3.33;;;;;;;;;;4988270;28;20037;-60
2020/12/09 16:51:31;;;;;;;23.08;4.47;;;;;;;;;;4982800;28;20832;-60
2020/12/09 16:53:57;;;;;;;13.10;3.63;;;;;;;;;;4989012;28;20066;-60
2020/12/09 16:56:23;;;;;;;17.52;4.20;;;;;;;;;;5004194;28;20460;-60
2020/12/09 16:58:49;;;;;;;10.32;2.90;;;;;;;;;;5004528;28;20037;-60
2020/12/09 17:01:15;;;;;;;13.80;2.90;;;;;;;;;;5003548;28;20052;-60
2020/12/09 17:03:41;;;;;;;21.58;4.43;;;;;;;;;;5003877;28;20014;-60
2020/12/09 17:06:07;;;;;;;27.42;5.45;;;;;;;;;;5006869;28;20113;-60
2020/12/09 17:08:34;;;;;;;19.75;3.83;;;;;;;;;;5006896;28;20441;-60
2020/12/09 17:11:00;;;;;;;18.25;3.50;;;;;;;;;;5006622;28;20056;-60
2020/12/09 17:13:27;;;;;;;14.10;4.20;;;;;;;;;;5006982;28;20084;-60
2020/12/09 17:15:53;;;;;;;16.98;3.40;;;;;;;;;;5009331;28;20026;-60
2020/12/09 17:18:19;;;;;;;15.25;3.22;;;;;;;;;;5007975;28;20076;-60
2020/12/09 17:20:45;;;;;;;13.73;3.38;;;;;;;;;;5006458;28;20375;-59
2020/12/09 17:23:12;;;;;;;20.15;3.92;;;;;;;;;;5006284;28;20037;-60
2020/12/09 17:25:38;;;;;;;19.88;4.38;;;;;;;;;;5006811;28;20041;-60
2020/12/09 17:28:04;;;;;;;17.70;4.20;;;;;;;;;;5007680;28;20047;-60
2020/12/09 17:30:31;;;;;;;12.73;3.60;;;;;;;;;;5013384;28;20036;-60
2020/12/09 17:32:57;;;;;;;18.08;3.65;;;;;;;;;;5007855;28;20057;-60
2020/12/09 17:35:23;;;;;;;17.75;3.40;;;;;;;;;;5007681;28;20053;-60
2020/12/09 17:37:49;;;;;;;17.08;3.45;;;;;;;;;;5006427;28;20038;-60
2020/12/09 17:40:16;;;;;;;18.42;3.97;;;;;;;;;;5006232;28;20109;-60
2020/12/09 17:42:43;;;;;;;14.77;3.72;;;;;;;;;;5001624;28;20434;-60
2020/12/09 17:45:09;;;;;;;21.48;3.75;;;;;;;;;;5003500;28;20025;-60
2020/12/09 17:47:35;;;;;;;19.13;4.00;;;;;;;;;;5005567;28;20756;-59
2020/12/09 17:50:02;;;;;;;18.42;4.28;;;;;;;;;;5007123;28;20045;-58
2020/12/09 17:52:28;;;;;;;25.25;4.85;;;;;;;;;;5007476;28;20018;-60
2020/12/09 17:54:54;;;;;;;23.33;4.88;;;;;;;;;;5015264;28;20033;-60
2020/12/09 17:57:20;;;;;;;14.30;4.22;;;;;;;;;;5008187;28;20034;-61
2020/12/09 17:59:47;;;;;;;14.73;4.25;;;;;;;;;;5004835;28;20848;-59
2020/12/09 18:02:13;;;;;;;15.73;3.50;;;;;;;;;;5004346;28;20791;-59
2020/12/09 18:04:39;;;;;;;15.70;2.95;;;;;;;;;;5006442;28;20026;-59
2020/12/09 18:07:07;;;;;;;20.08;4.32;;;;;;;;;;5006870;28;20419;-59
2020/12/09 18:09:33;;;;;;;14.30;3.38;;;;;;;;;;5008998;28;20517;-59
2020/12/09 18:11:59;;;;;;;23.42;5.25;;;;;;;;;;5006029;28;20105;-59
2020/12/09 18:14:25;;;;;;;14.00;4.63;;;;;;;;;;5007565;28;20048;-59
2020/12/09 18:16:54;;;;;;;20.25;4.70;;;;;;;;;;4991493;28;20545;-59
2020/12/09 18:19:20;;;;;;;14.25;4.07;;;;;;;;;;5006072;28;20065;-59
2020/12/09 18:21:47;;;;;;;16.45;4.05;;;;;;;;;;5008378;28;20050;-59
2020/12/09 18:24:13;;;;;;;14.27;3.30;;;;;;;;;;5007175;28;20120;-59
2020/12/09 18:26:39;;;;;;;23.05;3.97;;;;;;;;;;5005820;28;20094;-59
2020/12/09 18:29:05;;;;;;;11.18;3.22;;;;;;;;;;5005752;28;20038;-60
2020/12/09 18:31:31;;;;;;;16.98;3.70;;;;;;;;;;5011038;28;20547;-59
2020/12/09 18:33:58;;;;;;;18.05;4.18;;;;;;;;;;5007935;28;20033;-59
2020/12/09 18:36:24;;;;;;;18.05;4.32;;;;;;;;;;5007731;28;20037;-59
2020/12/09 18:38:50;;;;;;;20.70;4.78;;;;;;;;;;5005774;28;20080;-59
2020/12/09 18:41:16;;;;;;;16.13;4.25;;;;;;;;;;4995637;28;20037;-59
2020/12/09 18:43:42;;;;;;;15.02;3.47;;;;;;;;;;5005356;28;20037;-59
2020/12/09 18:46:09;;;;;;;16.80;3.75;;;;;;;;;;5007161;28;20114;-59
2020/12/09 18:48:35;;;;;;;16.33;4.10;;;;;;;;;;5009340;28;20068;-59
2020/12/09 18:51:01;;;;;;;23.75;3.90;;;;;;;;;;5005714;28;20041;-59
2020/12/09 18:53:27;;;;;;;14.85;3.67;;;;;;;;;;5007417;28;20107;-59
2020/12/09 18:55:54;;;;;;;16.20;4.47;;;;;;;;;;5005218;28;20084;-59
2020/12/09 18:58:20;;;;;;;19.42;4.13;;;;;;;;;;5006691;28;20033;-59
2020/12/09 19:00:46;;;;;;;15.32;4.88;;;;;;;;;;5012066;28;20037;-59
2020/12/09 19:03:12;;;;;;;12.95;4.45;;;;;;;;;;5010512;28;20038;-59
2020/12/09 19:05:38;;;;;;;14.25;4.43;;;;;;;;;;5009211;28;20096;-59
2020/12/09 19:08:04;;;;;;;13.88;4.15;;;;;;;;;;4998470;28;20053;-59
2020/12/09 19:10:31;;;;;;;12.82;4.03;;;;;;;;;;5008639;28;20023;-59
2020/12/09 19:12:57;;;;;;;13.43;4.63;;;;;;;;;;5011269;28;20030;-59
2020/12/09 19:15:23;;;;;;;14.20;3.95;;;;;;;;;;5005304;28;20038;-59
2020/12/09 19:17:49;;;;;;;21.08;4.50;;;;;;;;;;5005937;28;20075;-59
2020/12/09 19:20:15;;;;;;;20.10;4.80;;;;;;;;;;5008079;28;20064;-59
2020/12/09 19:22:45;;;;;;;17.92;5.22;;;;;;;;;;5000710;28;20096;-60
2020/12/09 19:25:12;;;;;;;16.15;4.75;;;;;;;;;;4999891;28;20037;-58
2020/12/09 19:27:38;;;;;;;18.02;4.72;;;;;;;;;;5005137;28;20034;-59
2020/12/09 19:30:09;;;;;;;18.63;4.90;;;;;;;;;;5006486;28;20030;-59
2020/12/09 19:32:36;;;;;;;19.42;4.35;;;;;;;;;;5005411;28;20026;-58
2020/12/09 19:35:02;;;;;;;19.60;4.82;;;;;;;;;;5004052;28;20061;-59
2020/12/09 19:37:29;;;;;;;17.02;5.03;;;;;;;;;;4999918;28;20455;-60
2020/12/09 19:39:55;;;;;;;21.25;6.00;;;;;;;;;;5004578;28;20075;-54
2020/12/09 19:42:22;;;;;;;9.52;4.15;;;;;;;;;;5009169;28;20041;-60
2020/12/09 19:44:48;;;;;;;10.95;4.68;;;;;;;;;;4998689;28;20495;-59
2020/12/09 19:47:14;;;;;;;17.33;4.88;;;;;;;;;;4997583;28;20038;-59
2020/12/09 19:49:40;;;;;;;10.55;4.15;;;;;;;;;;5005286;28;20026;-59
2020/12/09 19:52:09;;;;;;;18.17;4.72;;;;;;;;;;5008447;28;20039;-60
2020/12/09 19:54:35;;;;;;;20.40;4.88;;;;;;;;;;5004082;28;20030;-59
2020/12/09 19:57:01;;;;;;;12.95;4.20;;;;;;;;;;5008123;28;20042;-60
2020/12/09 19:59:27;;;;;;;16.70;4.00;;;;;;;;;;5009204;28;20638;-60
2020/12/09 20:01:58;;;;;;;12.43;4.03;;;;;;;;;;5007683;28;20432;-59
2020/12/09 20:04:24;;;;;;;16.75;4.25;;;;;;;;;;4996307;28;20034;-59
2020/12/09 20:06:50;;;;;;;13.30;3.80;;;;;;;;;;5002260;28;20033;-59
2020/12/09 20:09:16;;;;;;;19.50;4.93;;;;;;;;;;5004402;28;20030;-59
2020/12/09 20:11:45;;;;;;;11.38;4.00;;;;;;;;;;4996480;28;20041;-59
2020/12/09 20:14:11;;;;;;;15.65;4.07;;;;;;;;;;5005368;28;20052;-59
2020/12/09 20:16:38;;;;;;;9.73;4.20;;;;;;;;;;5001953;28;20036;-58
2020/12/09 20:19:05;;;;;;;10.82;3.55;;;;;;;;;;5008126;28;20038;-60
2020/12/09 20:21:33;;;;;;;12.90;4.15;;;;;;;;;;5006987;28;20050;-59
2020/12/09 20:23:59;;;;;;;17.63;4.13;;;;;;;;;;5003921;28;20026;-60
2020/12/09 20:26:33;;;;;;;10.38;3.58;;;;;;;;;;5006200;28;20033;-59
2020/12/09 20:28:59;;;;;;;13.80;3.95;;;;;;;;;;5004025;28;20609;-59
2020/12/09 20:31:26;;;;;;;12.50;4.70;;;;;;;;;;5000968;28;20097;-59
2020/12/09 20:33:52;;;;;;;10.55;4.05;;;;;;;;;;5002751;28;20026;-59
2020/12/09 20:36:31;;;;;;;12.18;3.95;;;;;;;;;;5001807;28;20049;-59
2020/12/09 20:38:58;;;;;;;12.10;4.75;;;;;;;;;;5004249;28;20033;-59
2020/12/09 20:41:24;;;;;;;14.18;4.10;;;;;;;;;;5004266;28;20645;-59
2020/12/09 20:43:52;;;;;;;12.43;3.90;;;;;;;;;;5002739;28;20033;-60
2020/12/09 20:46:18;;;;;;;16.45;4.78;;;;;;;;;;5002783;28;20685;-59
2020/12/09 20:48:45;;;;;;;15.25;3.72;;;;;;;;;;5003779;28;20026;-59
2020/12/09 20:51:11;;;;;;;13.60;3.03;;;;;;;;;;5004280;28;20092;-59